sensor_id;sensor_type;location;lat;lon;timestamp;P1;durP1;ratioP1;P2;durP2;ratioP2
27642;SDS011;15053;48.618;10.024;2023-05-10T00:01:08;8.88;;;7.07;;
27642;SDS011;15053;48.618;10.024;2023-05-10T00:03:34;8.45;;;7.15;;
27642;SDS011;15053;48.618;10.024;2023-05-10T00:06:01;8.10;;;7.00;;
27642;SDS011;15053;48.618;10.024;2023-05-10T00:08:27;8.95;;;7.45;;
27642;SDS011;15053;48.618;10.024;2023-05-10T00:10:54;10.52;;;6.93;;
27642;SDS011;15053;48.618;10.024;2023-05-10T00:13:21;9.05;;;7.28;;
27642;SDS011;15053;48.618;10.024;2023-05-10T00:15:48;9.05;;;6.70;;
27642;SDS011;15053;48.618;10.024;2023-05-10T00:18:15;6.60;;;5.70;;
27642;SDS011;15053;48.618;10.024;2023-05-10T00:20:41;6.45;;;5.25;;
27642;SDS011;15053;48.618;10.024;2023-05-10T00:23:08;5.60;;;4.53;;
27642;SDS011;15053;48.618;10.024;2023-05-10T00:25:34;4.95;;;4.40;;
27642;SDS011;15053;48.618;10.024;2023-05-10T00:28:01;3.72;;;3.40;;
27642;SDS011;15053;48.618;10.024;2023-05-10T00:30:28;3.70;;;3.38;;
27642;SDS011;15053;48.618;10.024;2023-05-10T00:32:54;4.20;;;3.80;;
27642;SDS011;15053;48.618;10.024;2023-05-10T00:35:21;5.00;;;3.35;;
27642;SDS011;15053;48.618;10.024;2023-05-10T00:37:47;3.33;;;3.03;;
27642;SDS011;15053;48.618;10.024;2023-05-10T00:40:14;4.07;;;3.05;;
27642;SDS011;15053;48.618;10.024;2023-05-10T00:42:45;3.63;;;3.22;;
27642;SDS011;15053;48.618;10.024;2023-05-10T00:45:11;3.38;;;3.03;;
27642;SDS011;15053;48.618;10.024;2023-05-10T00:47:38;3.40;;;3.10;;
27642;SDS011;15053;48.618;10.024;2023-05-10T00:50:06;3.58;;;3.25;;
27642;SDS011;15053;48.618;10.024;2023-05-10T00:52:33;3.70;;;2.83;;
27642;SDS011;15053;48.618;10.024;2023-05-10T00:55:00;3.90;;;3.22;;
27642;SDS011;15053;48.618;10.024;2023-05-10T00:57:26;3.42;;;2.63;;
27642;SDS011;15053;48.618;10.024;2023-05-10T00:59:53;2.30;;;2.05;;
27642;SDS011;15053;48.618;10.024;2023-05-10T01:02:19;3.92;;;2.72;;
27642;SDS011;15053;48.618;10.024;2023-05-10T01:04:46;2.60;;;2.35;;
27642;SDS011;15053;48.618;10.024;2023-05-10T01:07:13;2.55;;;2.20;;
27642;SDS011;15053;48.618;10.024;2023-05-10T01:09:40;4.88;;;2.60;;
27642;SDS011;15053;48.618;10.024;2023-05-10T01:12:06;3.78;;;2.55;;
27642;SDS011;15053;48.618;10.024;2023-05-10T01:14:33;2.25;;;2.05;;
27642;SDS011;15053;48.618;10.024;2023-05-10T01:17:02;2.05;;;1.60;;
27642;SDS011;15053;48.618;10.024;2023-05-10T01:19:30;2.30;;;1.75;;
27642;SDS011;15053;48.618;10.024;2023-05-10T01:22:11;4.18;;;1.30;;
27642;SDS011;15053;48.618;10.024;2023-05-10T01:25:18;3.25;;;1.10;;
27642;SDS011;15053;48.618;10.024;2023-05-10T01:31:03;1.38;;;0.85;;
27642;SDS011;15053;48.618;10.024;2023-05-10T01:33:40;1.13;;;1.02;;
27642;SDS011;15053;48.618;10.024;2023-05-10T01:36:18;0.95;;;0.95;;
27642;SDS011;15053;48.618;10.024;2023-05-10T01:44:37;0.60;;;0.60;;
27642;SDS011;15053;48.618;10.024;2023-05-10T01:47:09;0.88;;;0.70;;
27642;SDS011;15053;48.618;10.024;2023-05-10T01:49:40;3.22;;;0.50;;
27642;SDS011;15053;48.618;10.024;2023-05-10T01:52:12;2.95;;;0.60;;
27642;SDS011;15053;48.618;10.024;2023-05-10T01:54:41;0.30;;;0.30;;
27642;SDS011;15053;48.618;10.024;2023-05-10T01:57:10;0.30;;;0.30;;
27642;SDS011;15053;48.618;10.024;2023-05-10T01:59:40;0.20;;;0.20;;
27642;SDS011;15053;48.618;10.024;2023-05-10T02:02:11;0.20;;;0.20;;
27642;SDS011;15053;48.618;10.024;2023-05-10T02:04:43;1.65;;;0.30;;
27642;SDS011;15053;48.618;10.024;2023-05-10T02:07:11;0.32;;;0.28;;
27642;SDS011;15053;48.618;10.024;2023-05-10T02:09:39;0.40;;;0.40;;
27642;SDS011;15053;48.618;10.024;2023-05-10T02:12:08;0.43;;;0.30;;
27642;SDS011;15053;48.618;10.024;2023-05-10T02:14:35;2.00;;;0.57;;
27642;SDS011;15053;48.618;10.024;2023-05-10T02:17:04;1.20;;;0.88;;
27642;SDS011;15053;48.618;10.024;2023-05-10T02:19:32;0.40;;;0.40;;
27642;SDS011;15053;48.618;10.024;2023-05-10T02:22:02;0.60;;;0.52;;
27642;SDS011;15053;48.618;10.024;2023-05-10T02:24:31;1.85;;;0.60;;
27642;SDS011;15053;48.618;10.024;2023-05-10T02:27:00;1.80;;;0.60;;
27642;SDS011;15053;48.618;10.024;2023-05-10T02:29:29;1.15;;;0.50;;
27642;SDS011;15053;48.618;10.024;2023-05-10T02:31:58;0.70;;;0.70;;
27642;SDS011;15053;48.618;10.024;2023-05-10T02:34:26;0.80;;;0.50;;
27642;SDS011;15053;48.618;10.024;2023-05-10T02:36:54;2.15;;;0.85;;
27642;SDS011;15053;48.618;10.024;2023-05-10T02:39:22;0.77;;;0.70;;
27642;SDS011;15053;48.618;10.024;2023-05-10T02:41:50;0.93;;;0.75;;
27642;SDS011;15053;48.618;10.024;2023-05-10T02:44:19;0.88;;;0.68;;
27642;SDS011;15053;48.618;10.024;2023-05-10T02:46:46;1.77;;;1.10;;
27642;SDS011;15053;48.618;10.024;2023-05-10T02:49:14;0.80;;;0.80;;
27642;SDS011;15053;48.618;10.024;2023-05-10T02:51:41;1.63;;;0.90;;
27642;SDS011;15053;48.618;10.024;2023-05-10T02:54:20;2.22;;;0.90;;
27642;SDS011;15053;48.618;10.024;2023-05-10T02:56:51;1.23;;;1.13;;
27642;SDS011;15053;48.618;10.024;2023-05-10T02:59:22;3.63;;;1.15;;
27642;SDS011;15053;48.618;10.024;2023-05-10T03:01:49;1.17;;;1.08;;
27642;SDS011;15053;48.618;10.024;2023-05-10T03:04:15;0.98;;;0.98;;
27642;SDS011;15053;48.618;10.024;2023-05-10T03:06:42;0.80;;;0.80;;
27642;SDS011;15053;48.618;10.024;2023-05-10T03:09:08;2.97;;;1.58;;
27642;SDS011;15053;48.618;10.024;2023-05-10T03:12:00;2.10;;;1.10;;
27642;SDS011;15053;48.618;10.024;2023-05-10T03:17:23;2.83;;;1.30;;
27642;SDS011;15053;48.618;10.024;2023-05-10T03:19:57;2.63;;;1.20;;
27642;SDS011;15053;48.618;10.024;2023-05-10T03:22:34;1.70;;;1.13;;
27642;SDS011;15053;48.618;10.024;2023-05-10T03:25:13;1.58;;;1.27;;
27642;SDS011;15053;48.618;10.024;2023-05-10T03:27:43;1.30;;;1.20;;
27642;SDS011;15053;48.618;10.024;2023-05-10T03:30:10;1.98;;;1.30;;
27642;SDS011;15053;48.618;10.024;2023-05-10T03:32:38;1.70;;;1.30;;
27642;SDS011;15053;48.618;10.024;2023-05-10T03:35:06;2.35;;;1.15;;
27642;SDS011;15053;48.618;10.024;2023-05-10T03:37:37;1.40;;;1.27;;
27642;SDS011;15053;48.618;10.024;2023-05-10T03:40:04;2.22;;;1.25;;
27642;SDS011;15053;48.618;10.024;2023-05-10T03:42:34;1.52;;;1.42;;
27642;SDS011;15053;48.618;10.024;2023-05-10T03:45:00;1.35;;;1.25;;
27642;SDS011;15053;48.618;10.024;2023-05-10T03:47:27;2.55;;;1.83;;
27642;SDS011;15053;48.618;10.024;2023-05-10T03:49:53;3.42;;;1.98;;
27642;SDS011;15053;48.618;10.024;2023-05-10T03:52:20;1.30;;;1.20;;
27642;SDS011;15053;48.618;10.024;2023-05-10T03:54:47;2.05;;;1.50;;
27642;SDS011;15053;48.618;10.024;2023-05-10T03:57:14;1.63;;;1.50;;
27642;SDS011;15053;48.618;10.024;2023-05-10T03:59:40;4.80;;;1.70;;
27642;SDS011;15053;48.618;10.024;2023-05-10T04:02:06;1.65;;;1.55;;
27642;SDS011;15053;48.618;10.024;2023-05-10T04:04:35;1.90;;;1.70;;
27642;SDS011;15053;48.618;10.024;2023-05-10T04:07:01;2.15;;;1.60;;
27642;SDS011;15053;48.618;10.024;2023-05-10T04:09:28;2.03;;;1.80;;
27642;SDS011;15053;48.618;10.024;2023-05-10T04:11:54;3.85;;;1.90;;
27642;SDS011;15053;48.618;10.024;2023-05-10T04:14:21;1.83;;;1.60;;
27642;SDS011;15053;48.618;10.024;2023-05-10T04:16:47;1.88;;;1.70;;
27642;SDS011;15053;48.618;10.024;2023-05-10T04:19:14;2.22;;;1.77;;
27642;SDS011;15053;48.618;10.024;2023-05-10T04:21:40;2.10;;;1.65;;
27642;SDS011;15053;48.618;10.024;2023-05-10T04:24:07;2.42;;;1.90;;
27642;SDS011;15053;48.618;10.024;2023-05-10T04:26:33;2.88;;;2.03;;
27642;SDS011;15053;48.618;10.024;2023-05-10T04:29:00;1.50;;;1.40;;
27642;SDS011;15053;48.618;10.024;2023-05-10T04:31:26;2.83;;;1.60;;
27642;SDS011;15053;48.618;10.024;2023-05-10T04:33:54;3.13;;;1.80;;
27642;SDS011;15053;48.618;10.024;2023-05-10T04:36:20;2.30;;;1.90;;
27642;SDS011;15053;48.618;10.024;2023-05-10T04:38:47;2.17;;;1.80;;
27642;SDS011;15053;48.618;10.024;2023-05-10T04:41:13;2.65;;;1.98;;
27642;SDS011;15053;48.618;10.024;2023-05-10T04:43:39;2.00;;;1.80;;
27642;SDS011;15053;48.618;10.024;2023-05-10T04:46:06;2.42;;;1.30;;
27642;SDS011;15053;48.618;10.024;2023-05-10T04:48:33;1.70;;;1.50;;
27642;SDS011;15053;48.618;10.024;2023-05-10T04:51:00;1.60;;;1.50;;
27642;SDS011;15053;48.618;10.024;2023-05-10T04:53:27;1.50;;;1.40;;
27642;SDS011;15053;48.618;10.024;2023-05-10T04:55:53;2.17;;;1.40;;
27642;SDS011;15053;48.618;10.024;2023-05-10T04:58:19;2.58;;;1.60;;
27642;SDS011;15053;48.618;10.024;2023-05-10T05:00:46;1.92;;;1.70;;
27642;SDS011;15053;48.618;10.024;2023-05-10T05:03:12;1.38;;;1.27;;
27642;SDS011;15053;48.618;10.024;2023-05-10T05:05:39;2.97;;;1.63;;
27642;SDS011;15053;48.618;10.024;2023-05-10T05:08:05;1.63;;;1.50;;
27642;SDS011;15053;48.618;10.024;2023-05-10T05:10:32;1.60;;;1.50;;
27642;SDS011;15053;48.618;10.024;2023-05-10T05:12:58;2.75;;;1.58;;
27642;SDS011;15053;48.618;10.024;2023-05-10T05:15:25;2.70;;;1.63;;
27642;SDS011;15053;48.618;10.024;2023-05-10T05:17:51;1.55;;;1.40;;
27642;SDS011;15053;48.618;10.024;2023-05-10T05:20:18;1.60;;;1.50;;
27642;SDS011;15053;48.618;10.024;2023-05-10T05:22:45;3.33;;;2.53;;
27642;SDS011;15053;48.618;10.024;2023-05-10T05:25:11;4.03;;;1.73;;
27642;SDS011;15053;48.618;10.024;2023-05-10T05:27:38;4.13;;;2.33;;
27642;SDS011;15053;48.618;10.024;2023-05-10T05:30:05;2.63;;;2.05;;
27642;SDS011;15053;48.618;10.024;2023-05-10T05:32:32;5.95;;;2.20;;
27642;SDS011;15053;48.618;10.024;2023-05-10T05:34:59;1.75;;;1.65;;
27642;SDS011;15053;48.618;10.024;2023-05-10T05:37:25;2.10;;;1.80;;
27642;SDS011;15053;48.618;10.024;2023-05-10T05:39:52;2.75;;;1.85;;
27642;SDS011;15053;48.618;10.024;2023-05-10T05:42:20;2.05;;;1.60;;
27642;SDS011;15053;48.618;10.024;2023-05-10T05:44:47;2.35;;;1.70;;
27642;SDS011;15053;48.618;10.024;2023-05-10T05:47:13;2.17;;;1.63;;
27642;SDS011;15053;48.618;10.024;2023-05-10T05:49:40;3.63;;;1.75;;
27642;SDS011;15053;48.618;10.024;2023-05-10T05:52:06;2.40;;;1.02;;
27642;SDS011;15053;48.618;10.024;2023-05-10T05:54:33;1.88;;;1.77;;
27642;SDS011;15053;48.618;10.024;2023-05-10T05:57:00;1.67;;;1.38;;
27642;SDS011;15053;48.618;10.024;2023-05-10T05:59:26;6.15;;;1.60;;
27642;SDS011;15053;48.618;10.024;2023-05-10T06:01:53;1.35;;;1.25;;
27642;SDS011;15053;48.618;10.024;2023-05-10T06:04:20;2.80;;;1.30;;
27642;SDS011;15053;48.618;10.024;2023-05-10T06:06:47;0.85;;;0.85;;
27642;SDS011;15053;48.618;10.024;2023-05-10T06:09:13;1.27;;;1.17;;
27642;SDS011;15053;48.618;10.024;2023-05-10T06:11:40;1.52;;;1.42;;
27642;SDS011;15053;48.618;10.024;2023-05-10T06:14:06;1.35;;;1.25;;
27642;SDS011;15053;48.618;10.024;2023-05-10T06:16:34;2.42;;;0.95;;
27642;SDS011;15053;48.618;10.024;2023-05-10T06:19:01;1.08;;;0.98;;
27642;SDS011;15053;48.618;10.024;2023-05-10T06:21:28;2.58;;;1.20;;
27642;SDS011;15053;48.618;10.024;2023-05-10T06:23:56;2.63;;;1.33;;
27642;SDS011;15053;48.618;10.024;2023-05-10T06:26:23;1.10;;;1.02;;
27642;SDS011;15053;48.618;10.024;2023-05-10T06:28:49;1.08;;;1.00;;
27642;SDS011;15053;48.618;10.024;2023-05-10T06:31:15;1.05;;;0.90;;
27642;SDS011;15053;48.618;10.024;2023-05-10T06:33:42;1.10;;;1.00;;
27642;SDS011;15053;48.618;10.024;2023-05-10T06:36:09;0.90;;;0.90;;
27642;SDS011;15053;48.618;10.024;2023-05-10T06:38:35;1.60;;;1.20;;
27642;SDS011;15053;48.618;10.024;2023-05-10T06:41:02;1.42;;;1.17;;
27642;SDS011;15053;48.618;10.024;2023-05-10T06:43:28;1.50;;;1.40;;
27642;SDS011;15053;48.618;10.024;2023-05-10T06:45:55;1.50;;;1.40;;
27642;SDS011;15053;48.618;10.024;2023-05-10T06:48:22;2.38;;;1.52;;
27642;SDS011;15053;48.618;10.024;2023-05-10T06:50:48;2.00;;;1.80;;
27642;SDS011;15053;48.618;10.024;2023-05-10T06:53:15;2.47;;;1.92;;
27642;SDS011;15053;48.618;10.024;2023-05-10T06:55:41;4.55;;;1.70;;
27642;SDS011;15053;48.618;10.024;2023-05-10T06:58:08;1.50;;;1.40;;
27642;SDS011;15053;48.618;10.024;2023-05-10T07:00:34;2.95;;;1.58;;
27642;SDS011;15053;48.618;10.024;2023-05-10T07:03:01;1.35;;;1.20;;
27642;SDS011;15053;48.618;10.024;2023-05-10T07:05:27;1.42;;;1.33;;
27642;SDS011;15053;48.618;10.024;2023-05-10T07:07:54;2.50;;;1.98;;
27642;SDS011;15053;48.618;10.024;2023-05-10T07:10:20;3.25;;;1.92;;
27642;SDS011;15053;48.618;10.024;2023-05-10T07:12:47;2.05;;;1.40;;
27642;SDS011;15053;48.618;10.024;2023-05-10T07:15:14;2.83;;;1.60;;
27642;SDS011;15053;48.618;10.024;2023-05-10T07:17:42;2.67;;;1.50;;
27642;SDS011;15053;48.618;10.024;2023-05-10T07:20:11;1.60;;;1.50;;
27642;SDS011;15053;48.618;10.024;2023-05-10T07:22:38;2.28;;;1.52;;
27642;SDS011;15053;48.618;10.024;2023-05-10T07:25:04;1.65;;;1.27;;
27642;SDS011;15053;48.618;10.024;2023-05-10T07:27:31;2.65;;;1.33;;
27642;SDS011;15053;48.618;10.024;2023-05-10T07:29:58;2.38;;;1.42;;
27642;SDS011;15053;48.618;10.024;2023-05-10T07:32:25;3.72;;;1.67;;
27642;SDS011;15053;48.618;10.024;2023-05-10T07:34:51;2.50;;;1.60;;
27642;SDS011;15053;48.618;10.024;2023-05-10T07:37:18;1.95;;;1.55;;
27642;SDS011;15053;48.618;10.024;2023-05-10T07:39:44;1.67;;;1.30;;
27642;SDS011;15053;48.618;10.024;2023-05-10T07:42:11;4.25;;;1.83;;
27642;SDS011;15053;48.618;10.024;2023-05-10T07:44:37;2.58;;;1.58;;
27642;SDS011;15053;48.618;10.024;2023-05-10T07:47:04;1.63;;;1.33;;
27642;SDS011;15053;48.618;10.024;2023-05-10T07:49:30;4.20;;;1.33;;
27642;SDS011;15053;48.618;10.024;2023-05-10T07:51:57;3.00;;;1.60;;
27642;SDS011;15053;48.618;10.024;2023-05-10T07:54:23;2.65;;;1.60;;
27642;SDS011;15053;48.618;10.024;2023-05-10T07:56:50;2.38;;;1.75;;
27642;SDS011;15053;48.618;10.024;2023-05-10T07:59:17;1.98;;;1.48;;
27642;SDS011;15053;48.618;10.024;2023-05-10T08:01:43;3.83;;;1.35;;
27642;SDS011;15053;48.618;10.024;2023-05-10T08:04:10;2.53;;;1.75;;
27642;SDS011;15053;48.618;10.024;2023-05-10T08:06:38;3.03;;;1.83;;
27642;SDS011;15053;48.618;10.024;2023-05-10T08:09:05;1.67;;;1.35;;
27642;SDS011;15053;48.618;10.024;2023-05-10T08:11:31;2.22;;;1.80;;
27642;SDS011;15053;48.618;10.024;2023-05-10T08:14:00;5.53;;;2.00;;
27642;SDS011;15053;48.618;10.024;2023-05-10T08:16:26;2.65;;;1.55;;
27642;SDS011;15053;48.618;10.024;2023-05-10T08:18:53;1.98;;;1.60;;
27642;SDS011;15053;48.618;10.024;2023-05-10T08:21:21;3.55;;;2.05;;
27642;SDS011;15053;48.618;10.024;2023-05-10T08:23:48;1.50;;;1.20;;
27642;SDS011;15053;48.618;10.024;2023-05-10T08:26:15;1.75;;;1.33;;
27642;SDS011;15053;48.618;10.024;2023-05-10T08:28:41;3.40;;;1.75;;
27642;SDS011;15053;48.618;10.024;2023-05-10T08:31:08;1.50;;;1.40;;
27642;SDS011;15053;48.618;10.024;2023-05-10T08:33:34;1.85;;;1.40;;
27642;SDS011;15053;48.618;10.024;2023-05-10T08:36:01;3.25;;;1.40;;
27642;SDS011;15053;48.618;10.024;2023-05-10T08:38:28;1.83;;;1.40;;
27642;SDS011;15053;48.618;10.024;2023-05-10T08:40:54;5.05;;;2.00;;
27642;SDS011;15053;48.618;10.024;2023-05-10T08:43:26;2.67;;;1.45;;
27642;SDS011;15053;48.618;10.024;2023-05-10T08:45:55;1.42;;;1.00;;
27642;SDS011;15053;48.618;10.024;2023-05-10T08:48:23;1.30;;;1.20;;
27642;SDS011;15053;48.618;10.024;2023-05-10T08:50:52;4.30;;;1.40;;
27642;SDS011;15053;48.618;10.024;2023-05-10T08:53:21;1.48;;;1.15;;
27642;SDS011;15053;48.618;10.024;2023-05-10T08:55:51;1.85;;;1.73;;
27642;SDS011;15053;48.618;10.024;2023-05-10T08:58:18;1.38;;;1.20;;
27642;SDS011;15053;48.618;10.024;2023-05-10T09:00:45;1.48;;;1.27;;
27642;SDS011;15053;48.618;10.024;2023-05-10T09:03:14;1.08;;;1.00;;
27642;SDS011;15053;48.618;10.024;2023-05-10T09:05:41;1.60;;;0.88;;
27642;SDS011;15053;48.618;10.024;2023-05-10T09:08:08;1.90;;;1.02;;
27642;SDS011;15053;48.618;10.024;2023-05-10T09:10:35;1.42;;;0.82;;
27642;SDS011;15053;48.618;10.024;2023-05-10T09:13:01;2.85;;;1.63;;
27642;SDS011;15053;48.618;10.024;2023-05-10T09:15:28;0.80;;;0.80;;
27642;SDS011;15053;48.618;10.024;2023-05-10T09:17:55;0.70;;;0.70;;
27642;SDS011;15053;48.618;10.024;2023-05-10T09:20:22;1.50;;;0.80;;
27642;SDS011;15053;48.618;10.024;2023-05-10T09:22:48;0.70;;;0.70;;
27642;SDS011;15053;48.618;10.024;2023-05-10T09:25:16;0.50;;;0.50;;
27642;SDS011;15053;48.618;10.024;2023-05-10T09:27:46;1.75;;;0.88;;
27642;SDS011;15053;48.618;10.024;2023-05-10T09:30:17;1.30;;;0.90;;
27642;SDS011;15053;48.618;10.024;2023-05-10T09:32:50;1.23;;;0.93;;
27642;SDS011;15053;48.618;10.024;2023-05-10T09:35:17;1.38;;;0.90;;
27642;SDS011;15053;48.618;10.024;2023-05-10T09:37:47;2.38;;;1.05;;
27642;SDS011;15053;48.618;10.024;2023-05-10T09:40:18;1.10;;;0.60;;
27642;SDS011;15053;48.618;10.024;2023-05-10T09:42:59;1.58;;;0.77;;
27642;SDS011;15053;48.618;10.024;2023-05-10T09:45:29;0.57;;;0.52;;
27642;SDS011;15053;48.618;10.024;2023-05-10T09:47:57;0.70;;;0.60;;
27642;SDS011;15053;48.618;10.024;2023-05-10T09:50:25;4.32;;;0.90;;
27642;SDS011;15053;48.618;10.024;2023-05-10T09:52:53;0.98;;;0.77;;
27642;SDS011;15053;48.618;10.024;2023-05-10T09:55:37;0.77;;;0.77;;
27642;SDS011;15053;48.618;10.024;2023-05-10T09:58:06;1.25;;;0.75;;
27642;SDS011;15053;48.618;10.024;2023-05-10T10:00:37;0.60;;;0.60;;
27642;SDS011;15053;48.618;10.024;2023-05-10T10:03:06;3.47;;;0.90;;
27642;SDS011;15053;48.618;10.024;2023-05-10T10:05:39;0.93;;;0.70;;
27642;SDS011;15053;48.618;10.024;2023-05-10T10:08:06;1.08;;;0.73;;
27642;SDS011;15053;48.618;10.024;2023-05-10T10:10:33;0.82;;;0.80;;
27642;SDS011;15053;48.618;10.024;2023-05-10T10:13:00;4.03;;;0.80;;
27642;SDS011;15053;48.618;10.024;2023-05-10T10:15:27;0.85;;;0.73;;
27642;SDS011;15053;48.618;10.024;2023-05-10T10:17:54;1.45;;;0.80;;
27642;SDS011;15053;48.618;10.024;2023-05-10T10:20:21;1.00;;;0.77;;
27642;SDS011;15053;48.618;10.024;2023-05-10T10:22:49;0.75;;;0.75;;
27642;SDS011;15053;48.618;10.024;2023-05-10T10:25:16;3.78;;;1.00;;
27642;SDS011;15053;48.618;10.024;2023-05-10T10:33:29;0.70;;;0.70;;
27642;SDS011;15053;48.618;10.024;2023-05-10T10:36:06;1.67;;;0.90;;
27642;SDS011;15053;48.618;10.024;2023-05-10T10:39:16;1.70;;;1.13;;
27642;SDS011;15053;48.618;10.024;2023-05-10T10:41:35;3.17;;;0.80;;
27642;SDS011;15053;48.618;10.024;2023-05-10T10:47:01;2.83;;;1.05;;
27642;SDS011;15053;48.618;10.024;2023-05-10T10:49:32;4.63;;;0.77;;
27642;SDS011;15053;48.618;10.024;2023-05-10T10:55:00;2.40;;;1.08;;
27642;SDS011;15053;48.618;10.024;2023-05-10T10:57:42;1.23;;;0.65;;
27642;SDS011;15053;48.618;10.024;2023-05-10T11:00:29;1.40;;;1.08;;
27642;SDS011;15053;48.618;10.024;2023-05-10T11:02:58;1.88;;;0.88;;
27642;SDS011;15053;48.618;10.024;2023-05-10T11:05:45;1.35;;;0.85;;
27642;SDS011;15053;48.618;10.024;2023-05-10T11:08:16;1.85;;;0.95;;
27642;SDS011;15053;48.618;10.024;2023-05-10T11:13:42;8.85;;;1.75;;
27642;SDS011;15053;48.618;10.024;2023-05-10T11:16:16;1.90;;;1.10;;
27642;SDS011;15053;48.618;10.024;2023-05-10T11:18:57;1.63;;;1.02;;
27642;SDS011;15053;48.618;10.024;2023-05-10T11:21:29;1.95;;;1.30;;
27642;SDS011;15053;48.618;10.024;2023-05-10T11:23:57;3.78;;;1.45;;
27642;SDS011;15053;48.618;10.024;2023-05-10T11:26:26;3.53;;;1.45;;
27642;SDS011;15053;48.618;10.024;2023-05-10T11:28:57;5.10;;;1.85;;
27642;SDS011;15053;48.618;10.024;2023-05-10T11:31:28;2.08;;;1.77;;
27642;SDS011;15053;48.618;10.024;2023-05-10T11:33:55;3.42;;;1.80;;
27642;SDS011;15053;48.618;10.024;2023-05-10T11:36:25;3.55;;;2.00;;
27642;SDS011;15053;48.618;10.024;2023-05-10T11:38:56;5.57;;;1.60;;
27642;SDS011;15053;48.618;10.024;2023-05-10T11:41:23;2.03;;;1.63;;
27642;SDS011;15053;48.618;10.024;2023-05-10T11:43:51;2.85;;;1.63;;
27642;SDS011;15053;48.618;10.024;2023-05-10T11:46:19;2.90;;;1.48;;
27642;SDS011;15053;48.618;10.024;2023-05-10T11:48:51;3.17;;;1.35;;
27642;SDS011;15053;48.618;10.024;2023-05-10T11:51:28;2.83;;;1.47;;
27642;SDS011;15053;48.618;10.024;2023-05-10T11:53:55;0.80;;;0.80;;
27642;SDS011;15053;48.618;10.024;2023-05-10T11:56:23;2.13;;;1.73;;
27642;SDS011;15053;48.618;10.024;2023-05-10T11:58:53;1.95;;;1.15;;
27642;SDS011;15053;48.618;10.024;2023-05-10T12:01:22;1.63;;;1.20;;
27642;SDS011;15053;48.618;10.024;2023-05-10T12:03:50;2.97;;;1.10;;
27642;SDS011;15053;48.618;10.024;2023-05-10T12:06:18;1.23;;;1.13;;
27642;SDS011;15053;48.618;10.024;2023-05-10T12:08:46;3.28;;;1.17;;
27642;SDS011;15053;48.618;10.024;2023-05-10T12:11:13;2.63;;;0.82;;
27642;SDS011;15053;48.618;10.024;2023-05-10T12:13:42;1.63;;;1.10;;
27642;SDS011;15053;48.618;10.024;2023-05-10T12:16:19;5.57;;;1.40;;
27642;SDS011;15053;48.618;10.024;2023-05-10T12:18:50;2.63;;;1.50;;
27642;SDS011;15053;48.618;10.024;2023-05-10T12:21:22;3.42;;;1.30;;
27642;SDS011;15053;48.618;10.024;2023-05-10T12:23:52;3.55;;;1.10;;
27642;SDS011;15053;48.618;10.024;2023-05-10T12:26:23;3.15;;;1.70;;
27642;SDS011;15053;48.618;10.024;2023-05-10T12:28:53;7.25;;;6.47;;
27642;SDS011;15053;48.618;10.024;2023-05-10T12:31:20;3.20;;;2.47;;
27642;SDS011;15053;48.618;10.024;2023-05-10T12:33:46;2.83;;;1.40;;
27642;SDS011;15053;48.618;10.024;2023-05-10T12:36:15;2.78;;;1.30;;
27642;SDS011;15053;48.618;10.024;2023-05-10T12:38:43;1.70;;;1.15;;
27642;SDS011;15053;48.618;10.024;2023-05-10T12:41:14;1.73;;;1.20;;
27642;SDS011;15053;48.618;10.024;2023-05-10T12:43:42;1.63;;;1.33;;
27642;SDS011;15053;48.618;10.024;2023-05-10T12:46:09;2.15;;;1.50;;
27642;SDS011;15053;48.618;10.024;2023-05-10T12:48:37;7.60;;;2.50;;
27642;SDS011;15053;48.618;10.024;2023-05-10T12:51:05;2.28;;;1.63;;
27642;SDS011;15053;48.618;10.024;2023-05-10T12:53:35;0.75;;;0.75;;
27642;SDS011;15053;48.618;10.024;2023-05-10T12:56:02;0.85;;;0.70;;
27642;SDS011;15053;48.618;10.024;2023-05-10T12:58:29;0.77;;;0.70;;
27642;SDS011;15053;48.618;10.024;2023-05-10T13:00:58;1.15;;;1.00;;
27642;SDS011;15053;48.618;10.024;2023-05-10T13:03:26;1.15;;;0.73;;
27642;SDS011;15053;48.618;10.024;2023-05-10T13:05:52;1.70;;;1.10;;
27642;SDS011;15053;48.618;10.024;2023-05-10T13:08:19;0.82;;;0.82;;
27642;SDS011;15053;48.618;10.024;2023-05-10T13:10:45;1.35;;;0.80;;
27642;SDS011;15053;48.618;10.024;2023-05-10T13:13:12;2.33;;;1.15;;
27642;SDS011;15053;48.618;10.024;2023-05-10T13:15:38;2.95;;;1.42;;
27642;SDS011;15053;48.618;10.024;2023-05-10T13:18:05;1.63;;;1.30;;
27642;SDS011;15053;48.618;10.024;2023-05-10T13:20:31;1.40;;;1.20;;
27642;SDS011;15053;48.618;10.024;2023-05-10T13:22:58;2.85;;;1.30;;
27642;SDS011;15053;48.618;10.024;2023-05-10T13:25:24;1.95;;;1.10;;
27642;SDS011;15053;48.618;10.024;2023-05-10T13:27:51;1.77;;;1.23;;
27642;SDS011;15053;48.618;10.024;2023-05-10T13:30:17;3.15;;;1.27;;
27642;SDS011;15053;48.618;10.024;2023-05-10T13:32:44;2.88;;;1.25;;
27642;SDS011;15053;48.618;10.024;2023-05-10T13:35:11;3.47;;;1.42;;
27642;SDS011;15053;48.618;10.024;2023-05-10T13:37:38;2.22;;;0.95;;
27642;SDS011;15053;48.618;10.024;2023-05-10T13:40:04;1.60;;;1.00;;
27642;SDS011;15053;48.618;10.024;2023-05-10T13:42:32;5.35;;;1.60;;
27642;SDS011;15053;48.618;10.024;2023-05-10T13:44:59;1.98;;;1.30;;
27642;SDS011;15053;48.618;10.024;2023-05-10T13:47:28;2.17;;;1.10;;
27642;SDS011;15053;48.618;10.024;2023-05-10T13:49:54;2.72;;;1.60;;
27642;SDS011;15053;48.618;10.024;2023-05-10T13:52:21;4.07;;;1.65;;
27642;SDS011;15053;48.618;10.024;2023-05-10T13:54:47;4.10;;;1.85;;
27642;SDS011;15053;48.618;10.024;2023-05-10T13:57:14;3.60;;;1.35;;
27642;SDS011;15053;48.618;10.024;2023-05-10T13:59:42;1.50;;;1.20;;
27642;SDS011;15053;48.618;10.024;2023-05-10T14:02:09;4.78;;;1.42;;
27642;SDS011;15053;48.618;10.024;2023-05-10T14:04:37;4.93;;;1.38;;
27642;SDS011;15053;48.618;10.024;2023-05-10T14:07:03;1.48;;;1.33;;
27642;SDS011;15053;48.618;10.024;2023-05-10T14:09:30;2.90;;;1.50;;
27642;SDS011;15053;48.618;10.024;2023-05-10T14:11:57;2.90;;;1.50;;
27642;SDS011;15053;48.618;10.024;2023-05-10T14:14:23;2.10;;;1.60;;
27642;SDS011;15053;48.618;10.024;2023-05-10T14:16:51;2.92;;;1.60;;
27642;SDS011;15053;48.618;10.024;2023-05-10T14:19:17;4.00;;;1.85;;
27642;SDS011;15053;48.618;10.024;2023-05-10T14:21:44;3.47;;;1.73;;
27642;SDS011;15053;48.618;10.024;2023-05-10T14:24:10;3.78;;;1.70;;
27642;SDS011;15053;48.618;10.024;2023-05-10T14:26:37;2.88;;;1.95;;
27642;SDS011;15053;48.618;10.024;2023-05-10T14:29:03;5.13;;;2.13;;
27642;SDS011;15053;48.618;10.024;2023-05-10T14:31:30;3.65;;;2.08;;
27642;SDS011;15053;48.618;10.024;2023-05-10T14:33:56;4.05;;;2.10;;
27642;SDS011;15053;48.618;10.024;2023-05-10T14:36:23;2.75;;;2.08;;
27642;SDS011;15053;48.618;10.024;2023-05-10T14:38:50;2.38;;;2.05;;
27642;SDS011;15053;48.618;10.024;2023-05-10T14:41:17;2.00;;;1.80;;
27642;SDS011;15053;48.618;10.024;2023-05-10T14:43:44;2.95;;;2.20;;
27642;SDS011;15053;48.618;10.024;2023-05-10T14:46:10;5.32;;;2.00;;
27642;SDS011;15053;48.618;10.024;2023-05-10T14:48:37;3.72;;;1.98;;
27642;SDS011;15053;48.618;10.024;2023-05-10T14:51:03;3.63;;;2.10;;
27642;SDS011;15053;48.618;10.024;2023-05-10T14:53:30;2.38;;;1.83;;
27642;SDS011;15053;48.618;10.024;2023-05-10T14:55:56;5.05;;;1.98;;
27642;SDS011;15053;48.618;10.024;2023-05-10T14:58:23;4.20;;;1.85;;
27642;SDS011;15053;48.618;10.024;2023-05-10T15:00:50;5.05;;;2.35;;
27642;SDS011;15053;48.618;10.024;2023-05-10T15:03:17;1.90;;;1.63;;
27642;SDS011;15053;48.618;10.024;2023-05-10T15:05:44;2.00;;;1.85;;